Time;durP1;ratioP1;P1;durP2;ratioP2;P2;SDS_P1;SDS_P2;PMS_P1;PMS_P2;Temp;Humidity;BMP_temperature;BMP_pressure;BME280_temperature;BME280_humidity;BME280_pressure;Samples;Min_cycle;Max_cycle;Signal;HPM_P1;HPM_P2
2022/11/23 00:00:35;;;;;;;13.82;8.25;;;8.70;99.90;;;;;;5074292;28;20043;-86
2022/11/23 00:03:01;;;;;;;13.88;7.68;;;8.70;99.90;;;;;;5092119;28;20047;-86
2022/11/23 00:05:27;;;;;;;16.10;7.03;;;8.70;99.90;;;;;;5075835;28;20032;-86
2022/11/23 00:07:53;;;;;;;16.13;7.53;;;8.70;99.90;;;;;;5092371;28;20036;-86
2022/11/23 00:10:19;;;;;;;12.52;7.32;;;8.70;99.90;;;;;;5075536;28;20032;-86
2022/11/23 00:12:45;;;;;;;15.32;7.47;;;8.70;99.90;;;;;;5091966;28;20047;-86
2022/11/23 00:15:13;;;;;;;13.63;6.88;;;8.70;99.90;;;;;;5092157;28;20055;-85
2022/11/23 00:17:38;;;;;;;11.52;6.07;;;8.70;99.90;;;;;;5092448;28;20126;-86
2022/11/23 00:20:06;;;;;;;14.02;7.53;;;8.70;99.90;;;;;;5092207;28;20611;-85
2022/11/23 00:22:31;;;;;;;13.48;6.35;;;8.70;99.90;;;;;;5091851;28;20157;-86
2022/11/23 00:24:57;;;;;;;12.40;6.82;;;8.70;99.90;;;;;;5093312;28;20148;-86
2022/11/23 00:27:22;;;;;;;13.88;6.50;;;8.80;99.90;;;;;;5091841;28;20144;-86
2022/11/23 00:29:48;;;;;;;14.98;6.72;;;8.70;99.90;;;;;;5075454;28;20036;-86
2022/11/23 00:32:13;;;;;;;14.02;6.18;;;8.70;99.90;;;;;;5075005;28;20553;-86
2022/11/23 00:34:39;;;;;;;10.93;5.95;;;8.80;99.90;;;;;;5091963;28;20489;-86
2022/11/23 00:37:05;;;;;;;12.68;5.80;;;8.70;99.90;;;;;;5074907;28;20049;-86
2022/11/23 00:39:30;;;;;;;13.95;6.47;;;8.70;99.90;;;;;;5091816;28;20054;-86
2022/11/23 00:41:56;;;;;;;12.90;7.00;;;8.80;99.90;;;;;;5091573;28;20074;-86
2022/11/23 00:44:21;;;;;;;13.75;7.25;;;8.80;99.90;;;;;;5074645;28;20035;-86
2022/11/23 00:46:47;;;;;;;18.35;6.82;;;8.80;99.90;;;;;;5091752;28;20069;-85
2022/11/23 00:49:12;;;;;;;13.27;6.30;;;8.80;99.90;;;;;;5091632;28;20119;-86
2022/11/23 00:51:38;;;;;;;11.65;6.20;;;8.80;99.90;;;;;;5091523;28;20039;-86
2022/11/23 00:54:04;;;;;;;12.70;5.53;;;8.80;99.90;;;;;;5074295;28;20036;-86
2022/11/23 00:56:32;;;;;;;12.88;6.05;;;8.80;99.90;;;;;;5091583;28;20090;-85
2022/11/23 00:58:59;;;;;;;12.93;6.38;;;8.80;99.90;;;;;;5074492;28;20082;-86
2022/11/23 01:01:28;;;;;;;11.40;6.45;;;8.80;99.90;;;;;;5074669;28;20646;-85
2022/11/23 01:03:57;;;;;;;10.80;6.47;;;8.80;99.90;;;;;;5090496;28;20515;-86
2022/11/23 01:06:26;;;;;;;9.77;5.70;;;8.80;99.90;;;;;;5073799;28;20032;-85
2022/11/23 01:08:56;;;;;;;9.63;5.35;;;8.70;99.90;;;;;;5089936;28;20055;-86
2022/11/23 01:11:24;;;;;;;11.88;6.03;;;8.80;99.90;;;;;;5089378;28;20036;-86
2022/11/23 01:13:50;;;;;;;9.85;5.70;;;8.80;99.90;;;;;;5090236;28;20043;-85
2022/11/23 01:16:32;;;;;;;11.57;5.80;;;8.80;99.90;;;;;;5065216;28;20042;-86
2022/11/23 01:18:59;;;;;;;13.05;6.57;;;8.80;99.90;;;;;;5082761;28;20148;-85
2022/11/23 01:21:27;;;;;;;11.70;6.43;;;8.80;99.90;;;;;;5090519;28;20032;-86
2022/11/23 01:23:53;;;;;;;11.48;5.82;;;8.80;99.90;;;;;;5073040;28;20048;-86
2022/11/23 01:26:20;;;;;;;12.35;6.07;;;8.80;99.90;;;;;;5089035;28;20052;-86
2022/11/23 01:28:46;;;;;;;14.63;6.63;;;8.80;99.90;;;;;;5087531;28;20033;-86
2022/11/23 01:31:14;;;;;;;12.18;6.95;;;8.80;99.90;;;;;;5087395;28;20094;-85
2022/11/23 01:33:40;;;;;;;12.93;6.03;;;8.80;99.90;;;;;;5087092;28;20432;-86
2022/11/23 01:36:15;;;;;;;12.15;6.00;;;8.80;99.90;;;;;;5053983;28;20032;-86
2022/11/23 01:38:41;;;;;;;10.82;5.45;;;8.80;99.90;;;;;;5087399;28;20040;-86
2022/11/23 01:41:09;;;;;;;10.95;5.60;;;8.80;99.90;;;;;;5104379;28;20123;-86
2022/11/23 01:43:35;;;;;;;11.40;6.07;;;8.80;99.90;;;;;;5087035;28;20080;-86
2022/11/23 01:46:01;;;;;;;10.90;6.60;;;8.80;99.90;;;;;;5104543;28;20059;-86
2022/11/23 01:48:36;;;;;;;12.70;6.65;;;8.80;99.90;;;;;;5104341;28;20040;-85
2022/11/23 01:51:17;;;;;;;17.88;7.13;;;8.80;99.90;;;;;;5070280;28;20044;-86
2022/11/23 01:53:46;;;;;;;9.88;5.75;;;8.80;99.90;;;;;;5086898;28;20041;-86
2022/11/23 01:56:18;;;;;;;15.00;6.60;;;8.80;99.90;;;;;;5104336;28;20048;-86
2022/11/23 01:58:47;;;;;;;11.02;5.47;;;8.80;99.90;;;;;;5087239;28;20170;-86
2022/11/23 02:01:13;;;;;;;12.93;6.25;;;8.80;99.90;;;;;;5104106;28;20033;-86
2022/11/23 02:03:41;;;;;;;12.32;7.20;;;8.80;99.90;;;;;;5086933;28;20037;-86
2022/11/23 02:06:12;;;;;;;10.75;5.40;;;8.90;99.90;;;;;;5104175;28;20131;-86
2022/11/23 02:08:38;;;;;;;10.63;5.97;;;8.80;99.90;;;;;;5087109;28;20076;-86
2022/11/23 02:11:03;;;;;;;12.57;6.25;;;8.80;99.90;;;;;;5087138;28;20076;-86
2022/11/23 02:13:29;;;;;;;12.65;6.35;;;8.80;99.90;;;;;;5086694;28;20036;-86
2022/11/23 02:15:56;;;;;;;12.32;6.70;;;8.90;99.90;;;;;;5103958;28;20044;-85
2022/11/23 02:18:27;;;;;;;11.50;6.00;;;8.90;99.90;;;;;;5087327;28;20143;-86
2022/11/23 02:20:53;;;;;;;12.75;6.43;;;8.90;99.90;;;;;;5072546;28;20048;-87
2022/11/23 02:23:46;;;;;;;11.43;5.80;;;8.90;99.90;;;;;;5090896;28;20036;-88
2022/11/23 02:26:21;;;;;;;12.02;5.32;;;8.90;99.90;;;;;;5074012;28;20078;-88
2022/11/23 02:28:55;;;;;;;13.15;5.55;;;8.90;99.90;;;;;;5057210;28;20032;-87
2022/11/23 02:31:20;;;;;;;9.95;5.38;;;8.90;99.90;;;;;;5107864;28;20091;-87
2022/11/23 02:33:46;;;;;;;10.60;5.80;;;8.90;99.90;;;;;;5090953;28;20507;-87
2022/11/23 02:36:21;;;;;;;10.55;5.72;;;8.90;99.90;;;;;;5073843;28;20043;-88
2022/11/23 02:38:46;;;;;;;11.75;5.65;;;8.90;99.90;;;;;;5073834;28;20044;-87
2022/11/23 02:41:12;;;;;;;10.18;5.30;;;8.90;99.90;;;;;;5073640;28;20390;-87
2022/11/23 02:43:38;;;;;;;9.93;5.25;;;8.90;99.90;;;;;;5090386;28;20044;-87
2022/11/23 02:46:04;;;;;;;14.25;5.93;;;8.90;99.90;;;;;;5090460;28;20409;-87
2022/11/23 02:48:29;;;;;;;12.68;5.38;;;8.90;99.90;;;;;;5090705;28;20044;-87
2022/11/23 02:50:55;;;;;;;9.95;5.95;;;8.90;99.90;;;;;;5107368;28;20537;-87
2022/11/23 02:53:20;;;;;;;10.15;6.15;;;8.90;99.90;;;;;;5090014;28;20241;-88
2022/11/23 02:55:46;;;;;;;13.40;6.18;;;8.90;99.90;;;;;;5107605;28;20044;-87
2022/11/23 02:58:12;;;;;;;12.30;6.07;;;8.90;99.90;;;;;;5073345;28;20390;-88
2022/11/23 03:00:37;;;;;;;10.65;6.53;;;8.90;99.90;;;;;;5073204;28;20044;-88
2022/11/23 03:03:04;;;;;;;12.45;6.25;;;8.90;99.90;;;;;;5090307;28;20043;-88
2022/11/23 03:05:29;;;;;;;13.55;7.35;;;8.90;99.90;;;;;;5073267;28;20520;-88
2022/11/23 03:07:55;;;;;;;12.55;7.00;;;9.00;99.90;;;;;;5072973;28;20036;-88
2022/11/23 03:10:21;;;;;;;12.93;7.10;;;9.00;99.90;;;;;;5107221;28;20095;-88
2022/11/23 03:12:46;;;;;;;12.63;6.65;;;9.00;99.90;;;;;;5106896;28;20526;-88
2022/11/23 03:15:12;;;;;;;13.82;6.90;;;8.90;99.90;;;;;;5073082;28;20029;-88
2022/11/23 03:17:38;;;;;;;16.88;7.57;;;9.00;99.90;;;;;;5090285;28;20051;-87
2022/11/23 03:20:04;;;;;;;12.75;7.25;;;9.00;99.90;;;;;;5089951;28;20410;-88
2022/11/23 03:22:29;;;;;;;12.68;7.38;;;9.00;99.90;;;;;;5072617;28;20066;-88
2022/11/23 03:24:56;;;;;;;15.02;8.27;;;9.00;99.90;;;;;;5107076;28;20044;-88
2022/11/23 03:27:22;;;;;;;14.70;8.20;;;9.00;99.90;;;;;;5089735;28;20040;-88
2022/11/23 03:29:47;;;;;;;15.23;7.97;;;9.00;99.90;;;;;;5106861;28;20036;-88
2022/11/23 03:32:13;;;;;;;13.55;7.63;;;9.00;99.90;;;;;;5088564;28;20078;-88
2022/11/23 03:34:38;;;;;;;16.75;7.85;;;9.10;99.90;;;;;;5090038;28;20043;-88
2022/11/23 03:37:04;;;;;;;15.13;8.43;;;9.10;99.90;;;;;;5089626;28;20406;-88
2022/11/23 03:39:29;;;;;;;15.15;8.23;;;9.00;99.90;;;;;;5089655;28;20036;-88
2022/11/23 03:41:55;;;;;;;16.15;9.45;;;9.10;99.90;;;;;;5072591;28;20041;-87
2022/11/23 03:44:21;;;;;;;17.20;9.05;;;9.00;99.90;;;;;;5106301;28;20123;-88
2022/11/23 03:46:46;;;;;;;18.92;8.85;;;9.10;99.90;;;;;;5106766;28;20041;-87
2022/11/23 03:49:12;;;;;;;18.27;8.50;;;9.10;99.90;;;;;;5072516;28;20044;-87
2022/11/23 03:51:37;;;;;;;17.23;9.68;;;9.10;99.90;;;;;;5072638;28;20033;-88
2022/11/23 03:54:03;;;;;;;17.02;8.65;;;9.10;99.90;;;;;;5089208;28;20458;-88
2022/11/23 03:56:29;;;;;;;18.63;9.48;;;9.10;99.90;;;;;;5075977;28;20568;-87
2022/11/23 03:58:54;;;;;;;14.88;8.38;;;9.10;99.90;;;;;;5075809;28;20123;-87
2022/11/23 04:01:20;;;;;;;18.23;9.52;;;9.10;99.90;;;;;;5092781;28;20379;-88
2022/11/23 04:03:45;;;;;;;16.58;9.77;;;9.10;99.90;;;;;;5092272;28;20037;-88
2022/11/23 04:06:11;;;;;;;17.35;8.70;;;9.10;99.90;;;;;;5075385;28;20104;-88
2022/11/23 04:08:37;;;;;;;15.05;8.70;;;9.10;99.90;;;;;;5075617;28;20188;-88
2022/11/23 04:11:02;;;;;;;14.88;8.02;;;9.10;99.90;;;;;;5075429;28;20476;-88
2022/11/23 04:13:28;;;;;;;18.23;8.85;;;9.10;99.90;;;;;;5092184;28;20043;-88
2022/11/23 04:15:53;;;;;;;18.63;8.93;;;9.10;99.90;;;;;;5092615;28;20149;-87
2022/11/23 04:18:19;;;;;;;19.98;9.35;;;9.10;99.90;;;;;;5092267;28;20124;-87
2022/11/23 04:20:44;;;;;;;15.23;8.77;;;9.10;99.90;;;;;;5092362;28;20073;-87
2022/11/23 04:23:12;;;;;;;16.88;9.35;;;9.10;99.90;;;;;;5091742;28;20047;-87
2022/11/23 04:25:38;;;;;;;16.50;8.70;;;9.10;99.90;;;;;;5092057;28;20517;-88
2022/11/23 04:28:03;;;;;;;20.67;9.02;;;9.10;99.90;;;;;;5091906;28;20047;-87
2022/11/23 04:30:29;;;;;;;18.83;9.80;;;9.10;99.90;;;;;;5092280;28;20032;-87
2022/11/23 04:32:54;;;;;;;13.98;8.43;;;9.10;99.90;;;;;;5091635;28;20086;-88
2022/11/23 04:35:21;;;;;;;17.50;8.55;;;9.10;99.90;;;;;;5091784;28;20089;-87
2022/11/23 04:37:46;;;;;;;15.85;8.55;;;9.20;99.90;;;;;;5091822;28;20040;-88
2022/11/23 04:40:12;;;;;;;17.35;9.10;;;9.20;99.90;;;;;;5091772;28;20047;-88
2022/11/23 04:42:38;;;;;;;17.85;8.57;;;9.10;99.90;;;;;;5091693;28;20043;-87
2022/11/23 04:45:04;;;;;;;19.13;8.52;;;9.10;99.90;;;;;;5090989;28;20036;-87
2022/11/23 04:47:30;;;;;;;17.83;9.52;;;9.10;99.90;;;;;;5091293;28;20513;-87
2022/11/23 04:49:56;;;;;;;17.40;8.52;;;9.20;99.90;;;;;;5091489;28;20137;-87
2022/11/23 04:52:21;;;;;;;14.40;8.20;;;9.10;99.90;;;;;;5091206;28;20062;-87
2022/11/23 04:54:47;;;;;;;17.33;8.95;;;9.10;99.90;;;;;;5091238;28;20032;-88
2022/11/23 04:57:12;;;;;;;17.75;9.32;;;9.10;99.90;;;;;;5091503;28;20534;-87
2022/11/23 04:59:38;;;;;;;16.90;9.10;;;9.20;99.90;;;;;;5091494;28;20135;-88
2022/11/23 05:02:04;;;;;;;16.00;8.00;;;9.20;99.90;;;;;;5074216;28;20047;-87
2022/11/23 05:04:29;;;;;;;16.63;8.88;;;9.10;99.90;;;;;;5091141;28;20123;-87
2022/11/23 05:06:55;;;;;;;16.17;8.73;;;9.10;99.90;;;;;;5074277;28;20089;-87
2022/11/23 05:09:20;;;;;;;17.40;7.60;;;9.10;99.90;;;;;;5091299;28;20071;-88
2022/11/23 05:11:46;;;;;;;16.60;7.22;;;9.10;99.90;;;;;;5091174;28;20122;-87
2022/11/23 05:14:11;;;;;;;18.58;7.32;;;9.10;99.90;;;;;;5074069;28;20052;-87
2022/11/23 05:16:37;;;;;;;18.02;7.43;;;9.10;99.90;;;;;;5091040;28;20105;-87
2022/11/23 05:19:02;;;;;;;15.13;6.72;;;9.10;99.90;;;;;;5074317;28;20028;-87
2022/11/23 05:21:28;;;;;;;14.10;6.30;;;9.10;99.90;;;;;;5091089;28;20512;-87
2022/11/23 05:23:54;;;;;;;13.35;7.13;;;9.10;99.90;;;;;;5090594;28;20089;-87
2022/11/23 05:26:19;;;;;;;13.60;7.15;;;9.10;99.90;;;;;;5074069;28;20101;-87
2022/11/23 05:28:45;;;;;;;15.00;6.50;;;9.10;99.90;;;;;;5073999;28;20044;-87
2022/11/23 05:31:10;;;;;;;13.10;5.38;;;9.10;99.90;;;;;;5091110;28;20072;-88
2022/11/23 05:33:36;;;;;;;13.20;5.70;;;9.10;99.90;;;;;;5073807;28;20482;-88
2022/11/23 05:36:02;;;;;;;15.15;5.85;;;9.00;99.90;;;;;;5090712;28;20497;-87
2022/11/23 05:38:28;;;;;;;12.38;5.55;;;9.00;99.90;;;;;;5074212;28;20067;-88
2022/11/23 05:40:53;;;;;;;14.60;5.57;;;9.10;99.90;;;;;;5073864;28;20044;-87
2022/11/23 05:43:19;;;;;;;13.55;5.07;;;9.00;99.90;;;;;;5090736;28;20079;-87
2022/11/23 05:45:44;;;;;;;12.82;4.90;;;9.00;99.90;;;;;;5073857;28;20048;-87
2022/11/23 05:48:10;;;;;;;15.52;5.13;;;9.00;99.90;;;;;;5073683;28;20051;-88
2022/11/23 05:50:35;;;;;;;12.98;4.63;;;9.00;99.90;;;;;;5090898;28;20038;-87
2022/11/23 05:53:01;;;;;;;13.52;4.32;;;8.90;99.90;;;;;;5090246;28;20513;-87
2022/11/23 05:55:27;;;;;;;13.10;4.13;;;8.90;99.90;;;;;;5073674;28;20431;-87
2022/11/23 05:57:52;;;;;;;10.20;4.10;;;8.90;99.90;;;;;;5090511;28;20134;-87
2022/11/23 06:00:18;;;;;;;12.68;3.97;;;8.80;99.90;;;;;;5090608;28;20048;-87
2022/11/23 06:02:44;;;;;;;11.90;4.30;;;8.80;99.90;;;;;;5090117;28;20404;-87
2022/11/23 06:05:10;;;;;;;13.85;4.55;;;8.80;99.90;;;;;;5073653;28;20081;-87
2022/11/23 06:07:36;;;;;;;15.38;3.80;;;8.70;99.90;;;;;;5090245;28;20036;-88
2022/11/23 06:10:02;;;;;;;13.13;3.63;;;8.70;99.90;;;;;;5091825;28;20039;-87
2022/11/23 06:12:28;;;;;;;12.80;4.38;;;8.70;99.90;;;;;;5091669;28;20146;-88
2022/11/23 06:14:54;;;;;;;11.70;3.55;;;8.70;99.90;;;;;;5073443;28;20040;-87
2022/11/23 06:17:20;;;;;;;12.55;4.38;;;8.60;99.90;;;;;;5073741;28;20044;-87
2022/11/23 06:19:45;;;;;;;11.52;3.83;;;8.60;99.90;;;;;;5090262;28;20489;-87
2022/11/23 06:22:11;;;;;;;14.85;3.75;;;8.60;99.90;;;;;;5073299;28;20032;-88
2022/11/23 06:24:37;;;;;;;12.45;4.45;;;8.50;99.90;;;;;;5090282;28;20079;-87
2022/11/23 06:27:03;;;;;;;11.45;3.28;;;8.50;99.90;;;;;;5073238;28;20114;-87
2022/11/23 06:29:28;;;;;;;11.73;3.17;;;8.40;99.90;;;;;;5090412;28;20036;-87
2022/11/23 06:31:54;;;;;;;13.00;3.60;;;8.40;99.90;;;;;;5090203;28;20401;-88
2022/11/23 06:34:20;;;;;;;12.50;3.88;;;8.40;99.90;;;;;;5089978;28;20528;-87
2022/11/23 06:36:45;;;;;;;12.63;3.55;;;8.30;99.90;;;;;;5073231;28;20036;-87
2022/11/23 06:39:12;;;;;;;16.40;4.25;;;8.30;99.90;;;;;;5090455;28;20036;-87
2022/11/23 06:41:37;;;;;;;14.13;3.60;;;8.30;99.90;;;;;;5073583;28;20036;-88
2022/11/23 06:44:04;;;;;;;11.18;3.28;;;8.20;99.90;;;;;;5072980;28;20417;-87
2022/11/23 06:46:29;;;;;;;14.13;3.83;;;8.20;99.90;;;;;;5073155;28;20072;-88
2022/11/23 06:48:55;;;;;;;13.05;3.72;;;8.20;99.90;;;;;;5090046;28;20076;-87
2022/11/23 06:51:21;;;;;;;9.75;3.58;;;8.30;99.90;;;;;;5090014;28;20069;-87
2022/11/23 06:53:46;;;;;;;12.73;3.17;;;8.20;99.90;;;;;;5089679;28;20401;-87
2022/11/23 06:56:12;;;;;;;14.10;3.17;;;8.20;99.90;;;;;;5073142;28;20044;-87
2022/11/23 06:58:37;;;;;;;12.48;3.80;;;8.20;99.90;;;;;;5073025;28;20048;-87
2022/11/23 07:01:06;;;;;;;11.65;3.65;;;8.20;99.90;;;;;;5089807;28;20132;-87
2022/11/23 07:03:32;;;;;;;13.55;3.47;;;8.20;99.90;;;;;;5089688;28;20036;-87
2022/11/23 07:05:58;;;;;;;11.35;3.33;;;8.20;99.90;;;;;;5089727;28;20131;-87
2022/11/23 07:08:24;;;;;;;11.00;3.50;;;8.20;99.90;;;;;;5092819;28;20067;-87
2022/11/23 07:10:49;;;;;;;12.15;3.85;;;8.20;99.90;;;;;;5093762;28;20040;-87
2022/11/23 07:13:15;;;;;;;12.10;3.55;;;8.20;99.90;;;;;;5093288;28;20493;-87
2022/11/23 07:15:41;;;;;;;15.27;3.35;;;8.20;99.90;;;;;;5076416;28;20394;-87
2022/11/23 07:18:10;;;;;;;12.75;4.18;;;8.20;99.90;;;;;;5076518;28;20040;-87
2022/11/23 07:20:36;;;;;;;11.50;3.72;;;8.20;99.90;;;;;;5093515;28;20043;-87
2022/11/23 07:23:03;;;;;;;14.13;3.65;;;8.20;99.90;;;;;;5092645;28;20040;-87
2022/11/23 07:25:30;;;;;;;13.13;3.53;;;8.30;99.90;;;;;;5110265;28;20401;-88
2022/11/23 07:27:59;;;;;;;11.82;3.67;;;8.30;99.90;;;;;;5093176;28;20041;-87
2022/11/23 07:30:26;;;;;;;9.93;3.30;;;8.30;99.90;;;;;;5093167;28;20040;-87
2022/11/23 07:32:52;;;;;;;12.82;4.30;;;8.30;99.90;;;;;;5092674;28;20036;-87
2022/11/23 07:35:19;;;;;;;13.15;3.38;;;8.30;99.90;;;;;;5092889;28;20036;-87
2022/11/23 07:37:45;;;;;;;11.75;4.10;;;8.40;99.90;;;;;;5093102;28;20035;-87
2022/11/23 07:40:11;;;;;;;15.55;4.57;;;8.40;99.90;;;;;;5109979;28;20036;-87
2022/11/23 07:42:37;;;;;;;9.27;3.58;;;8.50;99.90;;;;;;5092773;28;20040;-87
2022/11/23 07:45:04;;;;;;;11.82;3.63;;;8.50;99.90;;;;;;5092344;28;20040;-88
2022/11/23 07:47:30;;;;;;;13.50;3.83;;;8.50;99.90;;;;;;5093033;28;20051;-88
2022/11/23 07:49:55;;;;;;;10.63;3.65;;;8.50;99.90;;;;;;5109796;28;20040;-88
2022/11/23 07:52:21;;;;;;;11.02;3.90;;;8.60;99.90;;;;;;5090279;28;20039;-87
2022/11/23 07:54:47;;;;;;;11.48;3.60;;;8.60;99.90;;;;;;5055424;28;20041;-88
2022/11/23 07:57:12;;;;;;;12.93;3.85;;;8.60;99.90;;;;;;5071280;28;20037;-87
2022/11/23 07:59:38;;;;;;;13.07;3.80;;;8.60;99.90;;;;;;5055255;28;20383;-87
2022/11/23 08:02:04;;;;;;;14.85;5.20;;;8.70;99.90;;;;;;5071195;28;20033;-87
2022/11/23 08:04:30;;;;;;;15.05;3.63;;;8.70;99.90;;;;;;5105951;28;20052;-87
2022/11/23 08:06:55;;;;;;;13.70;3.60;;;8.70;99.90;;;;;;5105495;28;20055;-87
2022/11/23 08:09:21;;;;;;;12.52;3.40;;;8.70;99.90;;;;;;5054861;28;20131;-88
2022/11/23 08:11:47;;;;;;;12.18;3.88;;;8.80;99.90;;;;;;5054698;28;20045;-87
2022/11/23 08:14:13;;;;;;;12.18;3.85;;;8.80;99.90;;;;;;5105042;28;20059;-87
2022/11/23 08:16:38;;;;;;;12.80;3.85;;;8.80;99.90;;;;;;5054650;28;20464;-87
2022/11/23 08:19:04;;;;;;;16.45;3.92;;;8.80;99.90;;;;;;5105276;28;20045;-87
2022/11/23 08:21:30;;;;;;;14.40;3.60;;;8.90;99.90;;;;;;5105102;28;20044;-88
2022/11/23 08:23:55;;;;;;;12.23;3.95;;;8.90;99.90;;;;;;5070984;28;20382;-87
2022/11/23 08:26:21;;;;;;;14.35;4.03;;;8.90;99.90;;;;;;5054489;28;20109;-87
2022/11/23 08:28:46;;;;;;;14.10;3.63;;;8.90;99.90;;;;;;5054380;28;20102;-88
2022/11/23 08:31:13;;;;;;;15.23;3.65;;;9.00;99.90;;;;;;5071031;28;20040;-87
2022/11/23 08:33:40;;;;;;;17.58;3.83;;;9.00;99.90;;;;;;5080034;28;20036;-87
2022/11/23 08:36:07;;;;;;;13.88;3.35;;;9.00;99.90;;;;;;5074199;28;20611;-88
2022/11/23 08:38:33;;;;;;;13.80;3.13;;;9.00;99.90;;;;;;5091427;28;20047;-87
2022/11/23 08:41:04;;;;;;;14.05;3.42;;;9.10;99.90;;;;;;5125464;27;20497;-87
2022/11/23 08:43:30;;;;;;;15.73;3.22;;;9.10;99.90;;;;;;5107825;28;20051;-87
2022/11/23 08:45:59;;;;;;;18.52;4.10;;;9.10;99.90;;;;;;5091272;28;20036;-87
2022/11/23 08:48:26;;;;;;;15.25;3.83;;;9.20;99.90;;;;;;5090916;28;20066;-87
2022/11/23 08:50:52;;;;;;;13.95;3.78;;;9.20;99.90;;;;;;5090943;28;20068;-87
2022/11/23 08:53:17;;;;;;;12.82;3.20;;;9.30;99.90;;;;;;5090426;28;20113;-87
2022/11/23 08:55:43;;;;;;;10.02;3.10;;;9.30;99.90;;;;;;5067045;28;20051;-87
2022/11/23 08:58:09;;;;;;;16.65;4.05;;;9.30;99.90;;;;;;5062276;28;20501;-87
2022/11/23 09:00:35;;;;;;;13.15;3.55;;;9.40;99.90;;;;;;5080185;28;20561;-87
2022/11/23 09:03:01;;;;;;;15.68;3.40;;;9.40;99.90;;;;;;5076851;28;20226;-87
2022/11/23 09:05:28;;;;;;;15.48;3.20;;;9.40;99.90;;;;;;5104614;28;20406;-87
2022/11/23 09:07:55;;;;;;;12.90;3.28;;;9.40;99.90;;;;;;5087218;28;20047;-88
2022/11/23 09:10:20;;;;;;;21.02;3.72;;;9.40;99.90;;;;;;5087286;28;20394;-87
2022/11/23 09:12:47;;;;;;;15.60;3.95;;;9.40;99.90;;;;;;5070174;28;20086;-87
2022/11/23 09:15:13;;;;;;;13.57;2.78;;;9.40;99.90;;;;;;5104117;28;20082;-87
2022/11/23 09:17:38;;;;;;;13.95;3.25;;;9.40;99.90;;;;;;5104070;28;20036;-87
2022/11/23 09:20:05;;;;;;;13.93;2.85;;;9.40;99.90;;;;;;5070302;28;20037;-87
2022/11/23 09:22:30;;;;;;;9.10;2.75;;;9.40;99.90;;;;;;5070027;28;20040;-87
2022/11/23 09:24:56;;;;;;;15.02;3.05;;;9.40;99.90;;;;;;5070311;28;20047;-87
2022/11/23 09:27:21;;;;;;;11.40;2.92;;;9.40;99.90;;;;;;5070201;28;20515;-87
2022/11/23 09:29:47;;;;;;;14.02;3.53;;;9.40;99.90;;;;;;5103547;28;20561;-87
2022/11/23 09:32:13;;;;;;;18.38;3.63;;;9.40;99.90;;;;;;5070193;28;20048;-87
2022/11/23 09:34:38;;;;;;;15.23;3.28;;;9.40;99.90;;;;;;5069980;28;20040;-87
2022/11/23 09:37:05;;;;;;;10.60;3.20;;;9.50;99.90;;;;;;5103853;28;20409;-87
2022/11/23 09:39:30;;;;;;;15.90;2.75;;;9.40;99.90;;;;;;5069989;28;20040;-87
2022/11/23 09:42:04;;;;;;;19.23;2.95;;;9.50;99.90;;;;;;5104231;28;20047;-87
2022/11/23 09:44:55;;;;;;;11.95;2.85;;;9.50;99.90;;;;;;5070097;28;20040;-87
2022/11/23 09:48:03;;;;;;;13.93;2.92;;;9.50;99.90;;;;;;5070839;28;20560;-87
2022/11/23 09:50:49;;;;;;;12.07;2.72;;;9.50;99.90;;;;;;5032250;28;20052;-88
2022/11/23 09:53:31;;;;;;;13.85;3.17;;;9.50;99.90;;;;;;5032042;28;20048;-87
2022/11/23 09:55:56;;;;;;;14.48;4.10;;;9.50;99.90;;;;;;5032022;28;20120;-87
2022/11/23 09:58:26;;;;;;;15.88;3.42;;;9.50;99.90;;;;;;5032490;28;20131;-87
2022/11/23 10:01:04;;;;;;;13.35;3.55;;;9.50;99.90;;;;;;5032353;28;20101;-87
2022/11/23 10:03:38;;;;;;;10.50;2.80;;;9.50;99.90;;;;;;5031867;28;20484;-87
2022/11/23 10:06:06;;;;;;;13.25;3.08;;;9.50;99.90;;;;;;5031764;28;20044;-87
2022/11/23 10:08:46;;;;;;;10.32;2.38;;;9.50;99.90;;;;;;5014483;28;20118;-87
2022/11/23 10:11:25;;;;;;;12.95;3.03;;;9.50;99.90;;;;;;5015925;28;20041;-87
2022/11/23 10:14:22;;;;;;;13.98;2.53;;;9.50;99.90;;;;;;5031901;28;20526;-87
2022/11/23 10:17:17;;;;;;;14.38;2.92;;;9.50;99.90;;;;;;5006458;28;20509;-87
2022/11/23 10:20:03;;;;;;;14.90;2.88;;;9.60;99.90;;;;;;5047345;28;20148;-86
2022/11/23 10:22:32;;;;;;;13.10;2.78;;;9.60;99.90;;;;;;5070003;28;20044;-87
2022/11/23 10:25:00;;;;;;;13.50;2.65;;;9.60;99.90;;;;;;5052758;28;20036;-87
2022/11/23 10:27:29;;;;;;;11.02;2.35;;;9.60;99.90;;;;;;5068289;28;20041;-88
2022/11/23 10:29:57;;;;;;;16.98;3.13;;;9.60;99.90;;;;;;5051450;28;20533;-88
2022/11/23 10:32:36;;;;;;;11.52;2.50;;;9.70;99.90;;;;;;5051699;28;20481;-88
2022/11/23 10:35:05;;;;;;;11.93;3.28;;;9.70;99.90;;;;;;5050625;28;20121;-87
2022/11/23 10:37:31;;;;;;;9.15;1.73;;;9.70;99.90;;;;;;5051543;28;20044;-87
2022/11/23 10:39:57;;;;;;;11.30;2.67;;;9.70;99.90;;;;;;5051480;28;20060;-87
2022/11/23 10:43:03;;;;;;;12.57;2.80;;;9.80;99.90;;;;;;5052854;28;20509;-87
2022/11/23 10:45:30;;;;;;;13.13;3.38;;;9.90;99.90;;;;;;4996357;28;20052;-87
2022/11/23 10:47:58;;;;;;;12.05;2.67;;;10.10;99.90;;;;;;4995522;28;20193;-88
2022/11/23 10:50:32;;;;;;;13.82;2.67;;;10.30;99.90;;;;;;4979556;28;20133;-88
2022/11/23 10:53:07;;;;;;;13.43;2.92;;;10.50;99.90;;;;;;4979154;28;20517;-88
2022/11/23 10:55:49;;;;;;;12.68;2.50;;;10.50;99.90;;;;;;4995011;28;20054;-87
2022/11/23 10:58:43;;;;;;;14.45;2.78;;;10.60;99.90;;;;;;4978801;28;20104;-88
2022/11/23 11:01:18;;;;;;;12.20;3.10;;;10.60;99.90;;;;;;4954626;28;20540;-87
2022/11/23 11:03:44;;;;;;;12.63;3.33;;;10.70;99.90;;;;;;4975913;28;20181;-87
2022/11/23 11:06:10;;;;;;;14.90;4.00;;;10.80;99.90;;;;;;4992207;28;20250;-87
2022/11/23 11:08:48;;;;;;;13.55;2.38;;;10.90;99.90;;;;;;5011929;28;20093;-87
2022/11/23 11:11:26;;;;;;;11.10;2.88;;;11.10;99.90;;;;;;5012140;28;20505;-87
2022/11/23 11:14:14;;;;;;;9.77;2.55;;;11.20;99.90;;;;;;5011793;28;20053;-87
2022/11/23 11:16:47;;;;;;;11.50;2.30;;;11.30;99.90;;;;;;5012960;28;20056;-88
2022/11/23 11:19:21;;;;;;;14.25;2.42;;;11.50;99.90;;;;;;5027979;28;20056;-88
2022/11/23 11:21:46;;;;;;;10.00;2.05;;;11.50;99.90;;;;;;5075328;28;20044;-88
2022/11/23 11:24:19;;;;;;;10.30;2.08;;;11.50;99.90;;;;;;5092071;28;20047;-89
2022/11/23 11:26:56;;;;;;;15.70;3.25;;;11.60;99.90;;;;;;5081299;28;20414;-88
2022/11/23 11:29:37;;;;;;;11.02;2.10;;;11.60;99.90;;;;;;5092188;28;20445;-89
2022/11/23 11:32:08;;;;;;;12.57;2.58;;;11.80;99.90;;;;;;5090632;28;20036;-89
2022/11/23 11:34:49;;;;;;;17.08;2.92;;;11.90;99.90;;;;;;5056019;28;20501;-89
2022/11/23 11:37:31;;;;;;;10.50;2.38;;;12.10;99.90;;;;;;5072532;28;20079;-88
2022/11/23 11:40:19;;;;;;;14.52;3.17;;;12.10;99.90;;;;;;5055743;28;20036;-89
2022/11/23 11:42:53;;;;;;;14.63;2.22;;;12.30;99.90;;;;;;5089223;28;20047;-88
2022/11/23 11:45:25;;;;;;;13.02;2.53;;;12.40;99.90;;;;;;5071908;28;20037;-88
2022/11/23 11:48:06;;;;;;;12.30;2.90;;;12.50;99.90;;;;;;5072229;28;20071;-88
2022/11/23 11:50:51;;;;;;;10.38;2.75;;;12.70;99.90;;;;;;5055302;28;20039;-88
2022/11/23 11:53:31;;;;;;;10.25;2.35;;;13.00;99.90;;;;;;5054598;28;20036;-87
2022/11/23 11:56:26;;;;;;;13.98;3.80;;;13.40;99.90;;;;;;5072136;28;20032;-86
2022/11/23 11:58:58;;;;;;;12.23;2.75;;;13.70;99.90;;;;;;5072300;28;20040;-86
2022/11/23 12:01:38;;;;;;;12.70;2.35;;;14.30;99.90;;;;;;5071620;28;20532;-86
2022/11/23 12:04:16;;;;;;;12.43;2.60;;;15.10;99.90;;;;;;5071547;28;20036;-86
2022/11/23 12:06:49;;;;;;;12.77;2.85;;;15.80;95.20;;;;;;5072004;28;20040;-86
2022/11/23 12:09:22;;;;;;;13.82;2.60;;;16.10;92.00;;;;;;5070785;28;20040;-86
2022/11/23 12:11:48;;;;;;;12.90;3.05;;;16.60;91.80;;;;;;5070457;28;20032;-86
2022/11/23 12:14:16;;;;;;;13.40;2.88;;;17.10;82.50;;;;;;5091508;28;20507;-87
2022/11/23 12:17:15;;;;;;;14.68;2.92;;;17.80;82.70;;;;;;5091824;28;20034;-87
2022/11/23 12:20:06;;;;;;;12.85;3.15;;;18.50;77.30;;;;;;5074804;28;20401;-87
2022/11/23 12:23:02;;;;;;;10.82;2.95;;;19.30;69.10;;;;;;5091529;28;20075;-87
2022/11/23 12:25:35;;;;;;;11.15;2.85;;;19.70;66.70;;;;;;5108280;28;20036;-86
2022/11/23 12:28:25;;;;;;;10.52;2.90;;;20.50;66.30;;;;;;5091657;28;20036;-87
2022/11/23 12:31:09;;;;;;;10.63;3.15;;;21.50;64.40;;;;;;5091581;28;20036;-87
2022/11/23 12:34:15;;;;;;;12.18;3.00;;;22.30;62.50;;;;;;5125785;27;20039;-87
2022/11/23 12:37:23;;;;;;;14.27;2.60;;;22.90;58.00;;;;;;5091483;28;20448;-87
2022/11/23 12:39:59;;;;;;;11.75;2.90;;;23.10;57.80;;;;;;5108527;28;20044;-87
2022/11/23 12:42:44;;;;;;;12.93;2.60;;;23.50;57.00;;;;;;5125635;27;20036;-87
2022/11/23 12:45:33;;;;;;;12.00;2.47;;;23.60;54.20;;;;;;5091110;28;20040;-87
2022/11/23 12:48:28;;;;;;;11.73;2.38;;;23.70;52.20;;;;;;5108256;28;20051;-88
2022/11/23 12:51:24;;;;;;;12.82;2.50;;;23.90;52.90;;;;;;5074368;28;20032;-88
2022/11/23 12:54:32;;;;;;;11.15;2.88;;;24.40;52.00;;;;;;5074271;28;20098;-87
2022/11/23 12:57:14;;;;;;;9.63;2.30;;;24.70;52.50;;;;;;5090480;28;20048;-87